Latest Weather Observations for Roma

IDQ60801

Issued at 7:05 pm EST Saturday 25 October 2014 (issued every 30 minutes, with the page automatically refreshed every 10 minutes)

About weather observations | Map of weather stations | Latest weather observations for QLD | Other Formats
Station Details ID: 043091 Name: ROMA AIRPORT Lat: -26.55 Lon: 148.77 Height: 307.38 m
Data from the previous 72 hours. | See also: Recent months at Roma
Date/Time
EST
Temp
°C
App
Temp
°C
Dew
Point
Rel
Hum
%
Delta-T
°C
Wind Press
QNH
hPa
Press
MSL
hPa
Rain
since 9 am
mm
Dir
 
Spd
km/h
Gust
km/h
Spd
kts
Gust
kts
25/07:00pm 28.1 25.5 3.0 20 12.6 SSE 6 9 3 5 1015.2 1014.0 0.0
25/06:30pm 29.7 26.9 2.9 18 13.6 SW 7 11 4 6 1014.9 1013.6 0.0
25/06:00pm 32.1 28.9 3.1 16 15.0 SW 9 11 5 6 1014.7 1013.4 0.0
25/05:30pm 34.5 29.6 2.1 13 16.7 SSW 17 20 9 11 1014.4 1013.1 0.0
25/05:00pm 36.0 31.1 2.1 12 17.6 SSW 17 22 9 12 1014.2 1012.9 0.0
25/04:30pm 37.5 33.2 3.3 12 18.3 SW 15 20 8 11 1014.1 1012.8 0.0
25/04:00pm 36.3 32.2 2.4 12 17.8 SW 13 20 7 11 1014.2 1012.9 0.0
25/03:30pm 36.6 32.9 2.6 12 17.9 W 11 17 6 9 1014.2 1012.9 0.0
25/03:00pm 37.7 32.7 3.4 12 18.4 SW 19 26 10 14 1014.4 1013.1 0.0
25/02:30pm 37.3 33.3 3.1 12 18.2 WSW 13 19 7 10 1014.6 1013.3 0.0
25/02:00pm 36.6 33.1 3.7 13 17.6 SE 11 17 6 9 1015.1 1013.8 0.0
25/01:30pm 37.6 34.1 3.4 12 18.3 N 11 19 6 10 1015.6 1014.4 0.0
25/01:00pm 37.5 32.5 4.4 13 18.0 SSW 20 26 11 14 1016.0 1014.8 0.0
25/12:30pm 35.2 32.3 4.7 15 16.5 W 9 22 5 12 1016.7 1015.5 0.0
25/12:00pm 35.7 31.4 5.1 15 16.7 SW 17 20 9 11 1017.4 1016.1 0.0
25/11:30am 35.5 30.7 5.8 16 16.3 WNW 20 28 11 15 1017.7 1016.4 0.0
25/11:00am 33.6 30.4 8.3 21 14.3 NNW 15 30 8 16 1018.5 1017.3 0.0
25/10:30am 32.6 29.7 8.1 22 13.8 N 13 19 7 10 1019.1 1017.9 0.0
25/10:00am 31.3 27.7 8.3 24 12.9 NNW 17 26 9 14 1019.6 1018.4 0.0
25/09:30am 30.7 27.3 9.0 26 12.2 N 17 26 9 14 1019.8 1018.6 0.0
25/09:00am 28.6 24.7 8.8 29 11.0 N 19 26 10 14 1020.0 1018.8 0.0
25/08:30am 27.4 23.6 9.7 33 10.0 N 20 32 11 17 1020.1 1018.9 0.0
25/08:00am 25.3 20.5 8.7 35 9.1 N 24 32 13 17 1019.8 1018.6 0.0
25/07:30am 24.6 19.8 9.0 37 8.6 N 24 30 13 16 1019.7 1018.5 0.0
25/07:00am 23.6 19.3 9.2 40 7.9 N 22 28 12 15 1019.9 1018.7 0.0
25/06:30am 22.0 18.1 9.5 45 6.8 N 20 28 11 15 1019.4 1018.2 0.0
25/06:00am 20.7 17.0 9.6 49 6.0 N 19 22 10 12 1019.2 1018.0 0.0
25/05:30am 20.1 16.4 9.4 50 5.8 NNE 19 22 10 12 1018.7 1017.5 0.0
25/05:00am 20.1 16.1 8.4 47 6.2 NNE 19 20 10 11 1018.3 1017.1 0.0
25/04:30am 20.8 17.2 8.4 45 6.6 N 17 20 9 11 1018.1 1016.9 0.0
25/04:00am 21.5 17.5 9.1 45 6.7 N 20 26 11 14 1018.0 1016.8 0.0
25/03:30am 20.2 17.0 6.9 42 6.8 N 13 17 7 9 1017.9 1016.6 0.0
25/03:00am 20.7 17.4 6.6 40 7.2 NNE 13 17 7 9 1017.5 1016.2 0.0
25/02:30am 20.8 17.5 6.4 39 7.4 NNE 13 15 7 8 1017.7 1016.4 0.0
25/02:00am 20.9 17.5 6.1 38 7.5 NNE 13 15 7 8 1017.6 1016.3 0.0
25/01:30am 20.6 17.3 6.5 40 7.2 NNE 13 17 7 9 1017.7 1016.4 0.0
25/01:00am 20.5 17.5 6.1 39 7.3 N 11 13 6 7 1017.9 1016.6 0.0
25/12:30am 20.6 17.6 5.8 38 7.5 N 11 13 6 7 1017.9 1016.6 0.0
25/12:00am 21.3 17.7 5.2 35 8.1 N 13 13 7 7 1018.1 1016.9 0.0
 
Date/Time
EST
Temp
°C
App
Temp
°C
Dew
Point
Rel
Hum
%
Delta-T
°C
Wind Press
QNH
hPa
Press
MSL
hPa
Rain
since 9 am
mm
Dir
 
Spd
km/h
Gust
km/h
Spd
kts
Gust
kts
24/11:30pm 21.8 18.3 5.3 34 8.3 N 13 15 7 8 1018.2 1017.0 0.0
24/11:00pm 23.1 19.2 5.5 32 9.0 N 15 17 8 9 1018.4 1017.2 0.0
24/10:30pm 23.5 19.6 5.4 31 9.2 N 15 17 8 9 1018.4 1017.2 0.0
24/10:00pm 24.6 20.7 5.4 29 9.9 N 15 17 8 9 1018.4 1017.2 0.0
24/09:30pm 25.9 22.0 5.5 27 10.6 N 15 19 8 10 1018.4 1017.2 0.0
24/09:00pm 26.1 22.1 5.1 26 10.8 NNE 15 19 8 10 1018.6 1017.4 0.0
24/08:30pm 27.4 23.2 5.6 25 11.4 NNE 17 20 9 11 1018.4 1017.2 0.0
24/08:00pm 28.1 24.3 5.6 24 11.8 NNE 15 20 8 11 1018.2 1017.0 0.0
24/07:30pm 28.8 25.0 5.6 23 12.3 NE 15 19 8 10 1018.0 1016.8 0.0
24/07:00pm 29.6 25.6 5.0 21 12.9 NE 15 19 8 10 1017.5 1016.2 0.0
24/06:30pm 29.5 25.6 3.5 19 13.3 E 13 17 7 9 1016.9 1015.7 0.0
24/06:00pm 31.7 28.5 2.8 16 14.8 E 9 13 5 7 1016.6 1015.4 0.0
24/05:30pm 33.6 29.7 3.4 15 15.8 E 13 19 7 10 1016.4 1015.2 0.0
24/05:00pm 34.1 29.0 2.8 14 16.3 ESE 19 26 10 14 1016.2 1015.0 0.0
24/04:30pm 34.7 29.6 3.3 14 16.5 SE 19 28 10 15 1016.1 1014.9 0.0
24/04:00pm 34.8 29.6 3.4 14 16.6 SSE 20 28 11 15 1016.0 1014.8 0.0
24/03:30pm 35.2 30.6 3.7 14 16.7 ENE 17 26 9 14 1016.0 1014.8 0.0
24/03:00pm 34.5 29.4 3.1 14 16.5 SSE 19 28 10 15 1016.3 1015.1 0.0
24/02:30pm 34.9 31.4 3.5 14 16.6 SE 11 20 6 11 1016.6 1015.4 0.0
24/02:00pm 35.9 31.6 5.2 15 16.8 SE 17 30 9 16 1017.1 1015.8 0.0
24/01:30pm 34.4 30.1 3.1 14 16.4 SE 15 28 8 15 1017.5 1016.2 0.0
24/01:00pm 34.4 31.0 4.0 15 16.1 SE 11 20 6 11 1018.0 1016.8 0.0
24/12:30pm 35.3 31.3 4.8 15 16.5 E 15 26 8 14 1018.4 1017.2 0.0
24/12:00pm 33.4 30.9 5.0 17 15.2 SSW 7 19 4 10 1018.9 1017.7 0.0
24/11:30am 32.6 29.7 4.4 17 14.9 NNE 9 15 5 8 1019.4 1018.2 0.0
24/11:00am 32.3 29.6 5.7 19 14.3 ENE 9 17 5 9 1019.7 1018.5 0.0
24/10:30am 31.4 28.4 5.8 20 13.8 N 11 22 6 12 1020.3 1019.1 0.0
24/10:00am 31.0 28.6 6.8 22 13.2 N 9 17 5 9 1020.7 1019.4 0.0
24/09:30am 29.5 26.4 7.4 25 12.1 N 13 20 7 11 1021.0 1019.8 0.0
24/09:00am 28.4 25.0 7.6 27 11.3 N 15 20 8 11 1021.2 1020.0 0.0
24/08:30am 26.2 23.2 7.7 31 10.0 N 13 20 7 11 1021.1 1019.9 0.0
24/08:00am 24.4 20.2 7.5 34 9.0 N 19 24 10 13 1020.9 1019.7 0.0
24/07:30am 22.9 18.3 8.2 39 7.9 N 22 28 12 15 1020.9 1019.7 0.0
24/07:00am 21.5 16.5 8.1 42 7.1 N 24 32 13 17 1020.6 1019.3 0.0
24/06:30am 20.1 15.9 8.1 46 6.3 N 20 28 11 15 1020.4 1019.2 0.0
24/06:00am 18.4 14.5 7.2 48 5.7 N 17 19 9 10 1020.2 1019.0 0.0
24/05:30am 17.3 14.0 6.5 49 5.4 NNE 13 17 7 9 1019.8 1018.6 0.0
24/05:00am 17.5 14.2 6.4 48 5.5 N 13 17 7 9 1019.6 1018.4 0.0
24/04:30am 18.3 14.1 5.5 43 6.3 NNE 17 20 9 11 1019.1 1017.9 0.0
24/04:00am 18.6 13.8 4.4 39 6.9 N 19 22 10 12 1018.7 1017.5 0.0
24/03:30am 17.4 13.8 5.0 44 6.0 N 13 15 7 8 1018.6 1017.4 0.0
24/03:00am 17.0 14.1 4.7 44 5.9 NNE 9 11 5 6 1018.5 1017.3 0.0
24/02:30am 17.2 13.2 4.9 44 6.0 N 15 17 8 9 1018.5 1017.3 0.0
24/02:00am 15.7 13.3 4.4 47 5.3 N 6 13 3 7 1018.6 1017.4 0.0
24/01:30am 15.7 14.4 4.1 46 5.5 CALM 0 0 0 0 1018.5 1017.3 0.0
24/01:00am 17.6 15.4 5.5 45 5.9 N 6 7 3 4 1018.5 1017.3 0.0
24/12:30am 18.0 15.7 4.9 42 6.4 N 6 7 3 4 1019.0 1017.8 0.0
24/12:00am 18.4 16.1 4.9 41 6.6 NNE 6 6 3 3 1019.3 1018.1 0.0
 
Date/Time
EST
Temp
°C
App
Temp
°C
Dew
Point
Rel
Hum
%
Delta-T
°C
Wind Press
QNH
hPa
Press
MSL
hPa
Rain
since 9 am
mm
Dir
 
Spd
km/h
Gust
km/h
Spd
kts
Gust
kts
23/11:30pm 18.2 15.7 4.7 41 6.6 N 7 9 4 5 1019.5 1018.3 0.0
23/11:00pm 18.8 16.3 4.9 40 6.8 N 7 7 4 4 1019.6 1018.4 0.0
23/10:30pm 18.0 15.0 3.9 39 6.7 N 9 11 5 6 1019.6 1018.4 0.0
23/10:00pm 19.6 17.2 4.5 37 7.4 N 6 9 3 5 1019.4 1018.2 0.0
23/09:30pm 20.1 18.5 4.6 36 7.6 N 2 9 1 5 1019.3 1018.1 0.0
23/09:00pm 21.0 19.8 4.6 34 8.1 CALM 0 0 0 0 1019.0 1017.8 0.0
23/08:30pm 20.8 18.1 2.6 30 8.7 NNE 6 7 3 4 1018.6 1017.4 0.0
23/08:00pm 22.2 19.6 4.3 31 8.9 N 7 9 4 5 1018.1 1016.9 0.0
23/07:30pm 24.7 23.6 5.0 28 10.1 CALM 0 0 0 0 1018.0 1016.8 0.0
23/07:00pm 25.1 23.3 3.7 25 10.7 S 2 7 1 4 1017.8 1016.5 0.0
23/06:30pm 27.1 24.5 4.2 23 11.7 SE 7 9 4 5 1017.4 1016.1 0.0
23/06:00pm 28.8 25.7 3.6 20 12.9 SSE 9 11 5 6 1017.1 1015.8 0.0
23/05:30pm 30.7 26.5 3.7 18 14.0 S 15 19 8 10 1016.8 1015.6 0.0
23/05:00pm 31.3 27.4 3.4 17 14.4 SE 13 19 7 10 1016.6 1015.4 0.0
23/04:30pm 31.1 27.3 4.0 18 14.1 SSE 13 20 7 11 1016.5 1015.3 0.0
23/04:00pm 32.2 27.7 4.1 17 14.8 ESE 17 24 9 13 1016.5 1015.3 0.0
23/03:30pm 31.7 27.9 3.7 17 14.6 S 13 24 7 13 1016.6 1015.4 0.0
23/03:00pm 32.1 29.5 4.0 17 14.7 S 7 13 4 7 1016.8 1015.6 0.0
23/02:30pm 31.9 28.8 3.8 17 14.7 NE 9 28 5 15 1017.2 1015.9 0.0
23/02:00pm 32.0 28.2 3.9 17 14.7 ESE 13 33 7 18 1017.5 1016.2 0.0
23/01:30pm 33.0 28.2 4.7 17 15.1 E 19 24 10 13 1017.8 1016.5 0.0
23/01:00pm 31.8 29.3 4.6 18 14.4 E 7 15 4 8 1018.2 1017.0 0.0
23/12:30pm 31.4 27.0 5.0 19 14.0 ESE 17 30 9 16 1018.8 1017.6 0.0
23/12:00pm 31.1 28.8 7.5 23 13.0 N 9 17 5 9 1019.4 1018.2 0.0
23/11:30am 29.1 25.8 6.5 24 12.2 N 13 22 7 12 1020.0 1018.8 0.0
23/11:00am 29.1 26.8 7.6 26 11.8 E 9 17 5 9 1020.4 1019.2 0.0
23/10:30am 27.7 24.8 8.1 29 10.8 NE 13 19 7 10 1021.0 1019.8 0.0
23/10:00am 26.9 23.6 9.7 34 9.6 NNE 17 22 9 12 1021.4 1020.2 0.0
23/09:30am 25.8 22.4 10.4 38 8.7 N 19 26 10 14 1021.9 1020.7 0.0
23/09:00am 24.6 21.1 10.8 42 7.8 N 20 26 11 14 1022.0 1020.8 0.0
23/08:30am 23.7 19.6 11.4 46 7.0 N 24 32 13 17 1022.0 1020.8 0.0
23/08:00am 21.9 17.2 10.7 49 6.2 N 26 30 14 16 1022.0 1020.8 0.0
23/07:30am 21.1 16.5 11.2 53 5.5 N 26 32 14 17 1022.0 1020.8 0.0
23/07:00am 19.8 14.8 11.0 57 4.9 NNE 28 35 15 19 1021.8 1020.6 0.0
23/06:30am 18.1 12.9 10.2 60 4.3 NNE 28 35 15 19 1021.6 1020.4 0.0
23/06:00am 17.5 14.0 10.1 62 4.0 NNE 19 26 10 14 1021.6 1020.4 0.0
23/05:30am 16.9 13.2 9.6 62 3.9 N 19 24 10 13 1021.2 1020.0 0.0
23/05:00am 17.2 13.4 8.9 58 4.3 NNE 19 24 10 13 1020.7 1019.4 0.0
23/04:30am 17.6 14.0 8.5 55 4.8 NNE 17 24 9 13 1020.2 1019.0 0.0
23/04:00am 17.8 14.0 7.5 51 5.3 NNE 17 20 9 11 1019.8 1018.6 0.0
23/03:30am 18.9 14.8 7.7 48 5.8 NNE 19 24 10 13 1019.6 1018.4 0.0
23/03:00am 18.5 15.1 7.6 49 5.6 NNE 15 22 8 12 1019.6 1018.4 0.0
23/02:30am 17.9 14.8 7.3 50 5.4 NNE 13 17 7 9 1019.8 1018.6 0.0
23/02:00am 16.7 14.8 6.8 52 5.0 NNE 6 9 3 5 1019.9 1018.7 0.0
23/01:30am 16.8 14.3 6.6 51 5.1 NNE 9 9 5 5 1020.1 1018.9 0.0
23/01:00am 17.6 15.7 6.5 48 5.6 NE 6 7 3 4 1020.1 1018.9 0.0
23/12:30am 18.3 16.4 6.5 46 6.0 N 6 7 3 4 1020.4 1019.2 0.0
23/12:00am 18.1 15.9 6.0 45 6.0 NNE 7 9 4 5 1020.6 1019.3 0.0
 
Date/Time
EST
Temp
°C
App
Temp
°C
Dew
Point
Rel
Hum
%
Delta-T
°C
Wind Press
QNH
hPa
Press
MSL
hPa
Rain
since 9 am
mm
Dir
 
Spd
km/h
Gust
km/h
Spd
kts
Gust
kts
22/11:30pm 19.6 17.1 6.7 43 6.6 N 9 11 5 6 1020.8 1019.5 0.0
22/11:00pm 19.4 16.1 6.2 42 6.6 N 13 15 7 8 1020.9 1019.7 0.0
22/10:30pm 20.7 18.7 6.3 39 7.3 N 6 9 3 5 1021.1 1019.9 0.0
22/10:00pm 20.7 18.4 5.9 38 7.5 NNE 7 9 4 5 1021.1 1019.9 0.0
22/09:30pm 21.6 19.0 5.9 36 8.0 ENE 9 13 5 7 1021.0 1019.8 0.0
22/09:00pm 22.1 19.5 6.3 36 8.1 NNE 9 13 5 7 1021.0 1019.8 0.0
22/08:30pm 22.1 19.5 5.9 35 8.3 E 9 11 5 6 1020.7 1019.4 0.0
22/08:00pm 22.7 19.6 5.6 33 8.7 ESE 11 13 6 7 1020.3 1019.1 0.0
22/07:30pm 23.7 21.0 5.6 31 9.3 ESE 9 9 5 5 1020.0 1018.8 0.0

Other Formats:

Comma delimited format used in spreadsheet applications
http://www.bom.gov.au/fwo/IDQ60801/IDQ60801.94515.axf

JavaScript Object Notation format (JSON) in row-major order
http://www.bom.gov.au/fwo/IDQ60801/IDQ60801.94515.json